createdAt,value
2018-11-12T00:01:46.380Z,91.50
2018-11-12T00:05:19.635Z,91.60
2018-11-12T00:08:52.852Z,91.50
2018-11-12T00:12:26.136Z,91.30
2018-11-12T00:15:59.361Z,91.40
2018-11-12T00:19:32.594Z,91.40
2018-11-12T00:23:05.883Z,91.30
2018-11-12T00:26:39.105Z,91.60
2018-11-12T00:30:14.363Z,91.20
2018-11-12T00:33:47.589Z,91.10
2018-11-12T00:37:20.884Z,91.10
2018-11-12T00:40:54.101Z,91.20
2018-11-12T00:44:27.318Z,91.20
2018-11-12T00:48:00.539Z,91.30
2018-11-12T00:51:33.790Z,91.30
2018-11-12T00:55:08.259Z,91.70
2018-11-12T00:58:41.463Z,91.50
2018-11-12T01:02:14.692Z,91.60
2018-11-12T01:05:47.924Z,91.70
2018-11-12T01:09:21.136Z,91.80
2018-11-12T01:12:54.372Z,91.80
2018-11-12T01:16:27.609Z,91.80
2018-11-12T01:20:00.840Z,91.80
2018-11-12T01:23:34.132Z,91.80
2018-11-12T01:27:07.365Z,91.80
2018-11-12T01:30:40.584Z,91.80
2018-11-12T01:34:13.823Z,91.90
2018-11-12T01:37:47.097Z,92.00
2018-11-12T01:41:20.321Z,92.00
2018-11-12T01:44:53.549Z,92.10
2018-11-12T01:48:26.774Z,92.20
2018-11-12T01:52:00.041Z,92.20
2018-11-12T01:55:33.280Z,92.10
2018-11-12T01:59:07.044Z,92.10
2018-11-12T02:02:40.491Z,92.00
2018-11-12T02:06:13.712Z,92.00
2018-11-12T02:09:46.962Z,92.00
2018-11-12T02:13:20.179Z,91.90
2018-11-12T02:16:53.408Z,92.00
2018-11-12T02:20:26.662Z,92.00
2018-11-12T02:23:59.888Z,92.00
2018-11-12T02:27:33.132Z,92.00
2018-11-12T02:31:06.372Z,92.10
2018-11-12T02:34:39.617Z,92.20
2018-11-12T02:38:12.886Z,92.10
2018-11-12T02:41:46.125Z,92.30
2018-11-12T02:45:19.368Z,92.50
2018-11-12T02:48:52.589Z,92.60
2018-11-12T02:52:25.830Z,92.70
2018-11-12T02:55:59.049Z,92.80
2018-11-12T02:59:32.294Z,93.30
2018-11-12T03:03:05.654Z,93.40
2018-11-12T03:06:38.889Z,92.90
2018-11-12T03:10:15.473Z,93.40
2018-11-12T03:13:48.699Z,93.50
2018-11-12T03:17:21.920Z,93.50
2018-11-12T03:20:55.157Z,93.40
2018-11-12T03:24:28.361Z,93.50
2018-11-12T03:28:01.577Z,93.60
2018-11-12T03:31:34.813Z,93.50
2018-11-12T03:35:08.995Z,93.50
2018-11-12T03:38:42.244Z,93.00
2018-11-12T03:42:15.476Z,93.00
2018-11-12T03:45:48.708Z,92.90
2018-11-12T03:49:21.920Z,93.00
2018-11-12T03:52:55.162Z,93.00
2018-11-12T03:56:28.388Z,92.90
2018-11-12T04:00:01.656Z,92.80
2018-11-12T04:03:34.900Z,92.70
2018-11-12T04:07:08.122Z,92.60
2018-11-12T04:10:41.354Z,92.60
2018-11-12T04:14:14.804Z,92.70
2018-11-12T04:17:48.012Z,92.80
2018-11-12T04:21:21.249Z,92.80
2018-11-12T04:24:54.485Z,92.80
2018-11-12T04:28:27.700Z,92.70
2018-11-12T04:32:00.928Z,92.60
2018-11-12T04:35:34.151Z,92.50
2018-11-12T04:39:08.840Z,92.40
2018-11-12T04:42:42.132Z,92.40
2018-11-12T04:46:15.381Z,92.40
2018-11-12T04:49:48.602Z,92.50
2018-11-12T04:53:21.842Z,92.50
2018-11-12T04:56:55.081Z,92.50
2018-11-12T05:00:29.021Z,92.40
2018-11-12T05:04:02.259Z,92.30
2018-11-12T05:07:35.596Z,92.20
2018-11-12T05:11:08.893Z,92.80
2018-11-12T05:14:42.160Z,92.40
2018-11-12T05:18:15.377Z,92.80
2018-11-12T05:21:48.617Z,92.90
2018-11-12T05:25:21.830Z,92.90
2018-11-12T05:28:55.068Z,92.40
2018-11-12T05:32:28.293Z,92.30
2018-11-12T05:36:01.522Z,92.20
2018-11-12T05:39:34.756Z,92.10
2018-11-12T05:43:07.987Z,92.10
2018-11-12T05:46:41.208Z,92.60
2018-11-12T05:50:17.365Z,92.60
2018-11-12T05:53:50.601Z,92.70
2018-11-12T05:57:23.859Z,92.80
2018-11-12T06:00:57.080Z,92.80
2018-11-12T06:04:30.302Z,92.90
2018-11-12T06:08:03.808Z,92.90
2018-11-12T06:11:37.201Z,92.90
2018-11-12T06:15:11.126Z,93.00
2018-11-12T06:18:44.347Z,93.00
2018-11-12T06:22:17.573Z,93.00
2018-11-12T06:25:50.807Z,93.00
2018-11-12T06:29:24.055Z,93.00
2018-11-12T06:32:57.292Z,93.00
2018-11-12T06:36:30.536Z,93.00
2018-11-12T06:40:04.129Z,93.00
2018-11-12T06:43:37.342Z,93.00
2018-11-12T06:47:10.563Z,93.00
2018-11-12T06:50:43.802Z,93.00
2018-11-12T06:54:17.131Z,93.30
2018-11-12T06:57:50.637Z,93.00
2018-11-12T07:01:23.888Z,92.90
2018-11-12T07:04:57.132Z,93.00
2018-11-12T07:08:30.389Z,92.90
2018-11-12T07:12:03.632Z,92.90
2018-11-12T07:15:36.881Z,92.90
2018-11-12T07:19:10.180Z,92.80
2018-11-12T07:22:43.484Z,92.80
2018-11-12T07:26:16.740Z,92.80
2018-11-12T07:29:49.967Z,92.70
2018-11-12T07:33:23.209Z,92.80
2018-11-12T07:36:56.589Z,92.80
2018-11-12T07:40:29.820Z,92.80
2018-11-12T07:44:03.072Z,92.80
2018-11-12T07:47:36.350Z,92.80
2018-11-12T07:51:09.809Z,92.80
2018-11-12T07:54:43.000Z,92.80
2018-11-12T07:58:16.232Z,92.80
2018-11-12T08:01:49.510Z,92.70
2018-11-12T08:05:22.884Z,92.20
2018-11-12T08:08:56.270Z,92.20
2018-11-12T08:12:29.494Z,92.00
2018-11-12T08:16:02.745Z,92.00
2018-11-12T08:19:35.984Z,91.90
2018-11-12T08:23:09.481Z,91.70
2018-11-12T08:26:43.117Z,91.60
2018-11-12T08:30:18.918Z,91.50
2018-11-12T08:33:52.189Z,91.40
2018-11-12T08:37:25.447Z,91.20
2018-11-12T08:40:58.736Z,91.20
2018-11-12T08:44:31.962Z,91.10
2018-11-12T08:48:05.634Z,91.00
2018-11-12T08:51:38.876Z,90.80
2018-11-12T08:55:13.871Z,90.60
2018-11-12T08:58:47.033Z,90.50
2018-11-12T09:02:20.286Z,90.30
2018-11-12T09:05:53.605Z,90.20
2018-11-12T09:09:26.773Z,90.00
2018-11-12T09:13:00.045Z,89.70
2018-11-12T09:16:33.296Z,89.40
2018-11-12T09:20:07.169Z,89.10
2018-11-12T09:23:40.456Z,88.70
2018-11-12T09:27:13.793Z,88.40
2018-11-12T09:30:48.290Z,87.90
2018-11-12T09:34:20.600Z,87.90
2018-11-12T09:37:54.602Z,87.50
2018-11-12T09:41:27.885Z,87.20
2018-11-12T09:45:01.136Z,86.80
2018-11-12T09:48:34.409Z,86.70
2018-11-12T09:52:07.934Z,86.10
2018-11-12T09:55:41.252Z,85.70
2018-11-12T09:59:14.461Z,85.40
2018-11-12T10:02:49.222Z,84.90
2018-11-12T10:06:23.207Z,84.70
2018-11-12T10:09:57.101Z,85.20
2018-11-12T10:13:31.789Z,84.10
2018-11-12T10:17:05.926Z,83.70
2018-11-12T10:20:36.410Z,83.10
2018-11-12T10:24:09.656Z,82.50
2018-11-12T10:27:42.902Z,81.80
2018-11-12T10:31:16.158Z,81.40
2018-11-12T10:34:49.973Z,81.20
2018-11-12T10:38:23.216Z,80.90
2018-11-12T10:41:56.484Z,80.30
2018-11-12T10:45:29.713Z,79.80
2018-11-12T10:49:02.944Z,79.50
2018-11-12T10:52:36.697Z,79.10
2018-11-12T10:56:10.011Z,78.70
2018-11-12T10:59:43.199Z,78.30
2018-11-12T11:03:21.798Z,78.00
2018-11-12T11:06:55.628Z,77.70
2018-11-12T11:10:29.657Z,77.50
2018-11-12T11:14:02.877Z,77.00
2018-11-12T11:17:36.125Z,76.80
2018-11-12T11:21:10.226Z,76.50
2018-11-12T11:24:43.462Z,75.90
2018-11-12T11:28:16.700Z,75.60
2018-11-12T11:31:50.156Z,74.90
2018-11-12T11:35:23.357Z,73.70
2018-11-12T11:38:56.971Z,73.30
2018-11-12T11:42:30.187Z,72.70
2018-11-12T11:46:03.473Z,72.50
2018-11-12T11:49:36.766Z,71.80
2018-11-12T11:53:10.024Z,71.40
2018-11-12T11:56:43.410Z,71.20
2018-11-12T12:00:22.494Z,71.20
2018-11-12T12:03:58.849Z,70.80
2018-11-12T12:07:32.100Z,71.00
2018-11-12T12:11:05.617Z,71.00
2018-11-12T12:14:38.952Z,70.80
2018-11-12T12:18:12.245Z,71.00
2018-11-12T12:21:46.333Z,70.80
2018-11-12T12:25:19.998Z,70.50
2018-11-12T12:28:53.101Z,70.40
2018-11-12T12:32:26.370Z,69.90
2018-11-12T12:35:59.633Z,69.90
2018-11-12T12:39:33.321Z,69.30
2018-11-12T12:43:06.628Z,68.50
2018-11-12T12:46:39.922Z,68.00
2018-11-12T12:50:14.153Z,67.80
2018-11-12T12:53:47.409Z,67.80
2018-11-12T12:57:20.680Z,68.00
2018-11-12T13:00:53.912Z,67.60
2018-11-12T13:04:27.213Z,67.20
2018-11-12T13:08:00.461Z,67.10
2018-11-12T13:11:33.880Z,67.20
2018-11-12T13:15:08.364Z,67.50
2018-11-12T13:18:41.541Z,67.60
2018-11-12T13:22:14.777Z,67.90
2018-11-12T13:25:48.002Z,68.00
2018-11-12T13:29:21.565Z,68.20
2018-11-12T13:32:54.809Z,68.20
2018-11-12T13:36:28.033Z,68.10
2018-11-12T13:40:01.544Z,68.20
2018-11-12T13:43:35.236Z,68.20
2018-11-12T13:47:08.448Z,68.30
2018-11-12T13:50:41.701Z,68.60
2018-11-12T13:54:15.052Z,68.70
2018-11-12T13:57:48.273Z,68.30
2018-11-12T14:01:21.521Z,68.30
2018-11-12T14:04:54.771Z,68.30
2018-11-12T14:08:28.005Z,68.40
2018-11-12T14:12:01.242Z,68.20
2018-11-12T14:15:34.487Z,68.30
2018-11-12T14:19:07.749Z,68.50
2018-11-12T14:22:41.073Z,69.40
2018-11-12T14:26:14.320Z,68.90
2018-11-12T14:29:47.837Z,68.90
2018-11-12T14:33:21.097Z,69.00
2018-11-12T14:36:54.340Z,69.00
2018-11-12T14:40:27.590Z,69.00
2018-11-12T14:44:00.826Z,69.10
2018-11-12T14:47:34.069Z,69.40
2018-11-12T14:51:07.378Z,69.50
2018-11-12T14:54:40.597Z,69.80
2018-11-12T14:58:13.829Z,70.10
2018-11-12T15:01:47.139Z,70.50
2018-11-12T15:05:21.860Z,70.80
2018-11-12T15:08:55.121Z,70.80
2018-11-12T15:12:28.305Z,71.00
2018-11-12T15:16:01.558Z,71.20
2018-11-12T15:19:34.783Z,71.40
2018-11-12T15:23:08.035Z,71.40
2018-11-12T15:26:41.279Z,71.50
2018-11-12T15:30:15.776Z,71.80
2018-11-12T15:33:49.014Z,72.00
2018-11-12T15:37:22.251Z,72.30
2018-11-12T15:40:55.485Z,72.50
2018-11-12T15:44:28.735Z,73.00
2018-11-12T15:48:01.985Z,73.50
2018-11-12T15:51:35.257Z,74.10
2018-11-12T15:55:09.008Z,74.60
2018-11-12T15:58:42.254Z,75.70
2018-11-12T16:02:15.524Z,75.90
2018-11-12T16:05:48.771Z,76.40
2018-11-12T16:09:22.031Z,77.00
2018-11-12T16:12:55.264Z,77.50
2018-11-12T16:16:28.501Z,78.00
2018-11-12T16:20:01.742Z,78.50
2018-11-12T16:23:34.985Z,79.00
2018-11-12T16:27:08.208Z,79.60
2018-11-12T16:30:41.455Z,80.00
2018-11-12T16:34:14.905Z,80.50
2018-11-12T16:37:49.223Z,80.90
2018-11-12T16:41:22.461Z,81.20
2018-11-12T16:44:55.725Z,81.70
2018-11-12T16:48:28.967Z,82.00
2018-11-12T16:52:02.228Z,82.20
2018-11-12T16:55:35.472Z,82.40
2018-11-12T16:59:08.713Z,82.80
2018-11-12T17:02:42.332Z,82.90
2018-11-12T17:06:15.570Z,83.20
2018-11-12T17:09:48.825Z,83.50
2018-11-12T17:13:22.073Z,83.70
2018-11-12T17:16:55.317Z,83.90
2018-11-12T17:20:28.556Z,84.20
2018-11-12T17:24:01.808Z,84.30
2018-11-12T17:27:35.057Z,84.50
2018-11-12T17:31:08.417Z,84.60
2018-11-12T17:34:41.664Z,84.80
2018-11-12T17:38:14.913Z,85.10
2018-11-12T17:41:48.148Z,85.40
2018-11-12T17:45:26.747Z,85.70
2018-11-12T17:48:59.983Z,86.00
2018-11-12T17:52:33.228Z,86.40
2018-11-12T17:56:06.455Z,86.50
2018-11-12T17:59:39.713Z,86.60
2018-11-12T18:03:12.955Z,86.60
2018-11-12T18:06:46.216Z,86.80
2018-11-12T18:10:19.670Z,87.00
2018-11-12T18:13:53.067Z,87.20
2018-11-12T18:17:26.146Z,87.20
2018-11-12T18:20:59.386Z,87.20
2018-11-12T18:24:32.631Z,87.30
2018-11-12T18:28:07.310Z,87.10
2018-11-12T18:31:40.780Z,87.30
2018-11-12T18:35:13.870Z,87.40
2018-11-12T18:38:47.121Z,87.70
2018-11-12T18:42:20.389Z,87.80
2018-11-12T18:45:53.626Z,88.00
2018-11-12T18:49:26.889Z,88.10
2018-11-12T18:53:00.133Z,88.20
2018-11-12T18:56:33.366Z,88.50
2018-11-12T19:00:09.571Z,88.50
2018-11-12T19:03:42.809Z,88.40
2018-11-12T19:07:16.058Z,88.10
2018-11-12T19:10:49.354Z,88.00
2018-11-12T19:14:22.561Z,87.70
2018-11-12T19:17:58.297Z,87.60
2018-11-12T19:21:31.544Z,87.70
2018-11-12T19:25:05.723Z,87.70
2018-11-12T19:28:38.970Z,87.80
2018-11-12T19:32:12.216Z,87.70
2018-11-12T19:35:45.464Z,87.70
2018-11-12T19:39:18.718Z,87.80
2018-11-12T19:42:52.971Z,87.60
2018-11-12T19:46:26.226Z,87.50
2018-11-12T19:49:59.475Z,87.40
2018-11-12T19:53:32.716Z,87.30
2018-11-12T19:57:06.288Z,87.40
2018-11-12T20:00:39.526Z,87.40
2018-11-12T20:04:12.776Z,87.40
2018-11-12T20:07:46.057Z,87.40
2018-11-12T20:11:19.304Z,87.40
2018-11-12T20:14:52.529Z,87.70
2018-11-12T20:18:25.785Z,87.80
2018-11-12T20:21:59.029Z,88.10
2018-11-12T20:25:32.276Z,88.30
2018-11-12T20:29:05.534Z,88.20
2018-11-12T20:32:38.781Z,88.50
2018-11-12T20:36:12.017Z,88.50
2018-11-12T20:39:45.256Z,88.80
2018-11-12T20:43:18.500Z,89.00
2018-11-12T20:46:51.740Z,89.30
2018-11-12T20:50:24.991Z,89.40
2018-11-12T20:53:58.287Z,89.50
2018-11-12T20:57:31.522Z,90.20
2018-11-12T21:01:04.777Z,89.90
2018-11-12T21:04:38.012Z,90.00
2018-11-12T21:08:11.259Z,90.10
2018-11-12T21:11:44.512Z,90.20
2018-11-12T21:15:18.709Z,90.10
2018-11-12T21:18:51.944Z,90.20
2018-11-12T21:22:25.192Z,90.30
2018-11-12T21:25:58.430Z,90.40
2018-11-12T21:29:31.669Z,90.40
2018-11-12T21:33:04.937Z,90.50
2018-11-12T21:36:38.180Z,90.50
2018-11-12T21:40:14.625Z,90.50
2018-11-12T21:43:47.945Z,90.50
2018-11-12T21:47:21.104Z,90.60
2018-11-12T21:50:54.357Z,90.60
2018-11-12T21:54:27.600Z,90.70
2018-11-12T21:58:00.859Z,90.80
2018-11-12T22:01:34.087Z,90.80
2018-11-12T22:05:07.347Z,90.80
2018-11-12T22:08:40.648Z,90.90
2018-11-12T22:12:13.850Z,90.90
2018-11-12T22:15:47.115Z,90.90
2018-11-12T22:19:20.413Z,90.90
2018-11-12T22:22:53.612Z,90.80
2018-11-12T22:26:26.853Z,90.80
2018-11-12T22:30:00.092Z,90.80
2018-11-12T22:33:33.338Z,90.70
2018-11-12T22:37:06.565Z,90.80
2018-11-12T22:40:39.810Z,90.80
2018-11-12T22:44:13.046Z,90.90
2018-11-12T22:47:46.879Z,90.90
2018-11-12T22:51:20.138Z,90.90
2018-11-12T22:54:53.410Z,90.90
2018-11-12T22:58:26.635Z,90.90
2018-11-12T23:02:00.184Z,90.80
2018-11-12T23:05:33.428Z,91.10
2018-11-12T23:09:15.177Z,90.80
2018-11-12T23:12:48.425Z,90.80
2018-11-12T23:16:21.665Z,90.70
2018-11-12T23:19:54.909Z,90.70
2018-11-12T23:23:28.176Z,90.60
2018-11-12T23:27:01.421Z,90.50
2018-11-12T23:30:34.676Z,90.40
2018-11-12T23:34:07.962Z,90.40
2018-11-12T23:37:41.989Z,90.40
2018-11-12T23:41:15.281Z,90.50
2018-11-12T23:44:48.515Z,90.50
2018-11-12T23:48:21.773Z,90.50
2018-11-12T23:51:55.040Z,90.60
2018-11-12T23:55:28.269Z,90.60
2018-11-12T23:59:01.510Z,90.60
